Time;durP1;ratioP1;P1;durP2;ratioP2;P2;SDS_P1;SDS_P2;PMS_P1;PMS_P2;Temp;Humidity;BMP_temperature;BMP_pressure;BME280_temperature;BME280_humidity;BME280_pressure;Samples;Min_cycle;Max_cycle;Signal;HPM_P1;HPM_P2
2021/05/11 00:01:21;;;;;;;0.50;0.40;;;;;;;;;;5050592;28;20060;-84
2021/05/11 00:03:48;;;;;;;1.08;0.40;;;;;;;;;;5050475;28;20025;-84
2021/05/11 00:06:14;;;;;;;0.40;0.40;;;;;;;;;;5050565;28;20021;-84
2021/05/11 00:08:40;;;;;;;0.40;0.40;;;;;;;;;;5050752;28;20064;-84
2021/05/11 00:11:06;;;;;;;0.40;0.40;;;;;;;;;;5050689;28;20417;-84
2021/05/11 00:13:32;;;;;;;0.98;0.55;;;;;;;;;;5050665;28;20029;-84
2021/05/11 00:15:59;;;;;;;0.40;0.40;;;;;;;;;;5050686;28;20151;-84
2021/05/11 00:18:26;;;;;;;0.45;0.45;;;;;;;;;;5050750;28;20028;-84
2021/05/11 00:20:52;;;;;;;0.55;0.50;;;;;;;;;;5050668;28;20096;-84
2021/05/11 00:23:18;;;;;;;0.40;0.40;;;;;;;;;;5050105;28;20483;-84
2021/05/11 00:25:44;;;;;;;0.60;0.40;;;;;;;;;;5050951;28;20028;-84
2021/05/11 00:28:10;;;;;;;0.50;0.43;;;;;;;;;;5050425;28;20036;-84
2021/05/11 00:30:36;;;;;;;0.60;0.38;;;;;;;;;;5050657;28;20041;-84
2021/05/11 00:33:02;;;;;;;0.40;0.40;;;;;;;;;;5050324;28;20510;-84
2021/05/11 00:35:28;;;;;;;0.45;0.40;;;;;;;;;;5050522;28;20086;-84
2021/05/11 00:37:55;;;;;;;0.70;0.60;;;;;;;;;;5050452;28;20095;-84
2021/05/11 00:40:21;;;;;;;0.93;0.73;;;;;;;;;;5050073;28;20096;-84
2021/05/11 00:42:47;;;;;;;1.20;0.20;;;;;;;;;;5032497;28;20078;-84
2021/05/11 00:45:13;;;;;;;0.40;0.40;;;;;;;;;;5050130;28;20102;-84
2021/05/11 00:47:40;;;;;;;0.30;0.30;;;;;;;;;;5050846;28;20033;-84
2021/05/11 00:50:06;;;;;;;0.55;0.40;;;;;;;;;;5052228;28;20029;-84
2021/05/11 00:52:33;;;;;;;0.25;0.20;;;;;;;;;;5053628;28;20033;-84
2021/05/11 00:54:59;;;;;;;0.28;0.28;;;;;;;;;;5054126;28;20029;-84
2021/05/11 00:57:26;;;;;;;0.40;0.40;;;;;;;;;;5053509;28;20580;-84
2021/05/11 00:59:54;;;;;;;0.52;0.50;;;;;;;;;;5053636;28;20049;-84
2021/05/11 01:02:20;;;;;;;0.55;0.43;;;;;;;;;;5053205;28;20024;-84
2021/05/11 01:04:46;;;;;;;0.45;0.20;;;;;;;;;;5053186;28;20029;-84
2021/05/11 01:07:12;;;;;;;1.92;0.43;;;;;;;;;;5053491;28;20514;-84
2021/05/11 01:09:38;;;;;;;0.63;0.30;;;;;;;;;;5053742;28;20513;-84
2021/05/11 01:12:05;;;;;;;0.40;0.40;;;;;;;;;;5053349;28;20041;-84
2021/05/11 01:14:31;;;;;;;0.20;0.20;;;;;;;;;;5053621;28;20059;-84
2021/05/11 01:16:59;;;;;;;0.75;0.68;;;;;;;;;;5053689;28;20060;-84
2021/05/11 01:19:42;;;;;;;0.60;0.40;;;;;;;;;;5052673;28;20028;-84
2021/05/11 01:24:46;;;;;;;0.70;0.30;;;;;;;;;;5053394;28;20051;-84
2021/05/11 01:30:43;;;;;;;0.50;0.50;;;;;;;;;;5053307;28;20036;-84
2021/05/11 01:46:34;;;;;;;0.35;0.35;;;;;;;;;;5052539;28;20106;-83
2021/05/11 01:49:17;;;;;;;0.28;0.20;;;;;;;;;;5052571;28;20018;-84
2021/05/11 01:58:00;;;;;;;1.48;0.30;;;;;;;;;;5052503;28;20128;-84
2021/05/11 02:24:43;;;;;;;0.50;0.30;;;;;;;;;;5052191;28;20477;-84
2021/05/11 02:27:09;;;;;;;1.38;0.22;;;;;;;;;;5052115;28;20103;-83
2021/05/11 02:29:35;;;;;;;1.58;0.22;;;;;;;;;;5051257;28;20487;-84
2021/05/11 02:32:01;;;;;;;0.32;0.22;;;;;;;;;;5033308;28;20458;-84
2021/05/11 02:34:27;;;;;;;0.47;0.28;;;;;;;;;;5051637;28;20025;-84
2021/05/11 02:36:53;;;;;;;0.70;0.70;;;;;;;;;;5052425;28;20029;-84
2021/05/11 02:39:20;;;;;;;0.50;0.40;;;;;;;;;;5051278;28;20060;-84
2021/05/11 02:41:46;;;;;;;0.43;0.32;;;;;;;;;;5051449;28;20021;-84
2021/05/11 02:44:15;;;;;;;0.88;0.30;;;;;;;;;;5050540;28;20048;-83
2021/05/11 02:46:41;;;;;;;0.55;0.35;;;;;;;;;;5052123;28;20486;-84
2021/05/11 02:49:08;;;;;;;2.40;0.40;;;;;;;;;;5051491;28;20033;-84
2021/05/11 02:51:34;;;;;;;0.40;0.40;;;;;;;;;;5050918;28;20013;-84
2021/05/11 02:54:00;;;;;;;0.50;0.50;;;;;;;;;;5051693;28;20060;-84
2021/05/11 02:56:26;;;;;;;0.13;0.13;;;;;;;;;;5050355;28;20472;-83
2021/05/11 02:58:53;;;;;;;0.30;0.30;;;;;;;;;;5051658;28;20132;-84
2021/05/11 03:01:19;;;;;;;0.20;0.20;;;;;;;;;;5050243;28;20029;-84
2021/05/11 03:03:45;;;;;;;0.30;0.30;;;;;;;;;;5051310;28;20463;-84
2021/05/11 03:06:12;;;;;;;0.50;0.45;;;;;;;;;;5033252;28;20075;-84
2021/05/11 03:08:42;;;;;;;0.95;0.40;;;;;;;;;;5051211;28;20494;-84
2021/05/11 03:11:08;;;;;;;0.63;0.30;;;;;;;;;;5050582;28;20476;-84
2021/05/11 03:13:34;;;;;;;1.75;1.40;;;;;;;;;;5050678;28;20020;-84
2021/05/11 03:16:00;;;;;;;0.73;0.30;;;;;;;;;;5050593;28;20024;-84
2021/05/11 03:18:26;;;;;;;1.75;0.40;;;;;;;;;;5051221;28;20128;-84
2021/05/11 03:20:52;;;;;;;0.20;0.20;;;;;;;;;;5050996;28;20589;-84
2021/05/11 03:23:18;;;;;;;0.15;0.15;;;;;;;;;;5050487;28;20017;-84
2021/05/11 03:25:45;;;;;;;1.08;0.47;;;;;;;;;;5051447;28;20060;-84
2021/05/11 03:28:11;;;;;;;1.42;0.45;;;;;;;;;;5050524;28;20036;-83
2021/05/11 03:30:40;;;;;;;0.65;0.50;;;;;;;;;;5051241;28;20040;-84
2021/05/11 03:33:06;;;;;;;0.35;0.25;;;;;;;;;;5050247;28;20021;-84
2021/05/11 03:35:32;;;;;;;1.67;0.30;;;;;;;;;;5050867;28;20025;-84
2021/05/11 03:37:58;;;;;;;0.40;0.40;;;;;;;;;;5050496;28;20086;-84
2021/05/11 03:40:24;;;;;;;0.30;0.20;;;;;;;;;;5050752;28;20029;-84
2021/05/11 03:43:01;;;;;;;0.30;0.15;;;;;;;;;;5050345;28;20086;-84
2021/05/11 03:45:33;;;;;;;0.20;0.20;;;;;;;;;;5050939;28;20118;-84
2021/05/11 03:47:59;;;;;;;0.20;0.20;;;;;;;;;;5050942;28;20170;-84
2021/05/11 03:50:25;;;;;;;0.38;0.30;;;;;;;;;;5049985;28;20041;-84
2021/05/11 03:52:51;;;;;;;0.45;0.40;;;;;;;;;;5050515;28;20022;-84
2021/05/11 03:55:17;;;;;;;0.47;0.30;;;;;;;;;;5050221;28;20387;-84
2021/05/11 03:57:43;;;;;;;0.20;0.10;;;;;;;;;;5050786;28;20051;-84
2021/05/11 04:00:09;;;;;;;0.45;0.38;;;;;;;;;;5050061;28;20025;-83
2021/05/11 04:02:37;;;;;;;0.40;0.40;;;;;;;;;;5050590;28;20029;-84
2021/05/11 04:05:07;;;;;;;0.20;0.20;;;;;;;;;;5050502;28;20025;-84
2021/05/11 04:07:33;;;;;;;0.60;0.43;;;;;;;;;;5050777;28;20029;-84
2021/05/11 04:10:01;;;;;;;0.20;0.20;;;;;;;;;;5051020;28;20036;-84
2021/05/11 04:17:45;;;;;;;0.50;0.50;;;;;;;;;;5051286;28;20036;-84
2021/05/11 04:20:12;;;;;;;0.20;0.20;;;;;;;;;;5050099;28;20025;-84
2021/05/11 04:22:38;;;;;;;0.38;0.38;;;;;;;;;;5032457;28;20510;-84
2021/05/11 04:25:05;;;;;;;0.52;0.22;;;;;;;;;;5052389;28;20104;-84
2021/05/11 04:27:31;;;;;;;0.20;0.20;;;;;;;;;;5054676;28;20087;-84
2021/05/11 04:30:00;;;;;;;0.20;0.20;;;;;;;;;;5054215;28;20432;-84
2021/05/11 04:32:27;;;;;;;0.20;0.20;;;;;;;;;;5054188;28;20514;-84
2021/05/11 04:34:53;;;;;;;0.20;0.20;;;;;;;;;;5053939;28;20468;-84
2021/05/11 04:37:19;;;;;;;0.68;0.40;;;;;;;;;;5054394;28;20029;-84
2021/05/11 04:39:45;;;;;;;0.45;0.20;;;;;;;;;;5054619;28;20480;-84
2021/05/11 04:42:12;;;;;;;0.20;0.20;;;;;;;;;;5053361;28;20514;-84
2021/05/11 04:44:39;;;;;;;0.30;0.20;;;;;;;;;;5054230;28;20033;-84
2021/05/11 04:47:13;;;;;;;0.10;0.10;;;;;;;;;;5053299;28;20114;-84
2021/05/11 04:49:39;;;;;;;0.10;0.10;;;;;;;;;;5053320;28;20064;-84
2021/05/11 04:52:06;;;;;;;1.13;0.43;;;;;;;;;;5053044;28;20029;-84
2021/05/11 04:54:32;;;;;;;0.30;0.30;;;;;;;;;;5035497;28;20415;-84
2021/05/11 04:56:58;;;;;;;0.20;0.20;;;;;;;;;;5052698;28;20025;-83
2021/05/11 04:59:25;;;;;;;1.45;0.30;;;;;;;;;;5053222;28;20041;-84
2021/05/11 05:01:53;;;;;;;0.20;0.20;;;;;;;;;;5053717;28;20051;-84
2021/05/11 05:04:19;;;;;;;0.20;0.20;;;;;;;;;;5053159;28;20468;-85
2021/05/11 05:06:45;;;;;;;0.68;0.40;;;;;;;;;;5053296;28;20576;-84
2021/05/11 05:09:11;;;;;;;0.52;0.52;;;;;;;;;;5052643;28;20039;-84
2021/05/11 05:11:41;;;;;;;0.17;0.17;;;;;;;;;;5052966;28;20516;-84
2021/05/11 05:14:07;;;;;;;0.43;0.20;;;;;;;;;;5053285;28;20067;-84
2021/05/11 05:16:34;;;;;;;0.32;0.32;;;;;;;;;;5053713;28;20403;-84
2021/05/11 05:19:00;;;;;;;0.30;0.30;;;;;;;;;;5052598;28;20100;-84
2021/05/11 05:21:27;;;;;;;0.45;0.30;;;;;;;;;;5052368;28;20029;-84
2021/05/11 05:24:01;;;;;;;0.35;0.20;;;;;;;;;;5053513;28;20510;-84
2021/05/11 05:26:29;;;;;;;1.73;0.75;;;;;;;;;;5053125;28;20029;-84
2021/05/11 05:28:57;;;;;;;0.80;0.52;;;;;;;;;;5052489;28;20025;-84
2021/05/11 05:31:23;;;;;;;0.30;0.30;;;;;;;;;;5052018;28;20060;-84
2021/05/11 05:33:49;;;;;;;0.88;0.70;;;;;;;;;;5053076;28;20460;-84
2021/05/11 05:36:16;;;;;;;0.40;0.40;;;;;;;;;;5052421;28;20033;-84
2021/05/11 05:38:42;;;;;;;0.50;0.50;;;;;;;;;;5053494;28;20064;-84
2021/05/11 05:41:12;;;;;;;1.65;0.20;;;;;;;;;;5052398;28;20484;-84
2021/05/11 05:43:38;;;;;;;0.25;0.22;;;;;;;;;;5053097;28;20025;-84
2021/05/11 05:46:04;;;;;;;0.77;0.70;;;;;;;;;;5053287;28;20086;-84
2021/05/11 05:48:30;;;;;;;0.10;0.10;;;;;;;;;;5051016;28;20053;-84
2021/05/11 05:50:59;;;;;;;1.08;0.30;;;;;;;;;;5051017;28;20075;-84
2021/05/11 05:53:29;;;;;;;0.65;0.30;;;;;;;;;;5051877;28;20398;-84
2021/05/11 05:55:56;;;;;;;0.40;0.25;;;;;;;;;;5049219;28;20407;-84
2021/05/11 05:58:22;;;;;;;0.45;0.30;;;;;;;;;;5050478;28;20403;-85
2021/05/11 06:00:52;;;;;;;2.28;0.60;;;;;;;;;;5051240;28;20021;-84
2021/05/11 06:03:49;;;;;;;0.63;0.25;;;;;;;;;;5050039;28;20120;-84
2021/05/11 06:06:06;;;;;;;1.80;0.13;;;;;;;;;;5050378;28;20557;-83
2021/05/11 06:08:33;;;;;;;0.38;0.20;;;;;;;;;;5050674;28;20107;-84
2021/05/11 06:14:10;;;;;;;0.38;0.28;;;;;;;;;;5048497;28;20033;-85
2021/05/11 06:19:08;;;;;;;3.22;1.20;;;;;;;;;;5048659;28;20123;-83
2021/05/11 06:21:34;;;;;;;4.38;2.97;;;;;;;;;;5049973;28;20029;-84
2021/05/11 06:24:00;;;;;;;3.70;2.35;;;;;;;;;;5047483;28;20033;-84
2021/05/11 06:26:26;;;;;;;5.30;2.08;;;;;;;;;;5046800;28;20040;-83
2021/05/11 06:28:54;;;;;;;2.40;1.13;;;;;;;;;;5049861;28;20197;-83
2021/05/11 06:31:20;;;;;;;2.10;0.75;;;;;;;;;;5049600;28;20037;-83
2021/05/11 06:33:46;;;;;;;1.25;0.65;;;;;;;;;;5045780;28;20086;-83
2021/05/11 06:36:12;;;;;;;1.55;0.85;;;;;;;;;;5043951;28;20033;-83
2021/05/11 06:38:39;;;;;;;1.63;0.60;;;;;;;;;;5049320;28;20029;-83
2021/05/11 06:41:05;;;;;;;2.25;1.13;;;;;;;;;;5049663;28;20043;-82
2021/05/11 06:43:33;;;;;;;0.90;0.70;;;;;;;;;;5046679;28;20032;-84
2021/05/11 06:48:34;;;;;;;0.60;0.60;;;;;;;;;;5046467;22;20543;-77
2021/05/11 06:53:41;;;;;;;1.50;0.68;;;;;;;;;;5038680;28;20579;-73
2021/05/11 06:56:09;;;;;;;1.75;0.60;;;;;;;;;;5043249;28;20511;-74
2021/05/11 06:58:36;;;;;;;3.60;0.50;;;;;;;;;;5045504;28;20036;-72
2021/05/11 07:01:02;;;;;;;1.85;0.50;;;;;;;;;;5046895;28;20104;-72
2021/05/11 07:03:28;;;;;;;0.70;0.52;;;;;;;;;;5044092;28;20056;-72
2021/05/11 07:05:54;;;;;;;0.40;0.35;;;;;;;;;;5043883;28;20377;-72
2021/05/11 07:10:53;;;;;;;0.50;0.47;;;;;;;;;;5043005;28;20257;-72
2021/05/11 07:13:19;;;;;;;2.92;1.35;;;;;;;;;;5045303;28;20032;-72
2021/05/11 07:15:46;;;;;;;1.20;0.50;;;;;;;;;;5043896;28;20067;-72
2021/05/11 07:18:12;;;;;;;2.63;0.55;;;;;;;;;;5037025;28;20028;-72
2021/05/11 07:20:38;;;;;;;1.67;0.70;;;;;;;;;;5044121;28;20064;-72
2021/05/11 07:23:04;;;;;;;2.00;0.43;;;;;;;;;;5044135;28;20032;-72
2021/05/11 07:25:38;;;;;;;1.15;0.60;;;;;;;;;;5045156;28;20067;-72
2021/05/11 07:30:36;;;;;;;0.90;0.60;;;;;;;;;;5033780;28;20549;-72
2021/05/11 07:33:07;;;;;;;2.28;0.50;;;;;;;;;;5044163;28;20025;-72
2021/05/11 07:35:35;;;;;;;4.20;0.85;;;;;;;;;;5045200;28;20403;-73
2021/05/11 07:38:01;;;;;;;3.97;1.33;;;;;;;;;;5052709;28;20032;-73
2021/05/11 07:40:27;;;;;;;0.90;0.70;;;;;;;;;;5044803;28;20542;-73
2021/05/11 07:42:53;;;;;;;1.95;0.80;;;;;;;;;;5046022;28;20391;-73
2021/05/11 07:45:30;;;;;;;2.45;1.15;;;;;;;;;;5044744;28;20032;-73
2021/05/11 08:04:36;;;;;;;8.88;0.90;;;;;;;;;;5017406;28;20659;-74
2021/05/11 08:17:49;;;;;;;0.60;0.60;;;;;;;;;;5049039;28;20184;-71
2021/05/11 08:28:18;;;;;;;1.23;1.10;;;;;;;;;;5048048;28;20727;-71
2021/05/11 08:30:46;;;;;;;0.90;0.88;;;;;;;;;;5061232;28;20559;-71
2021/05/11 08:33:12;;;;;;;1.33;1.27;;;;;;;;;;5052725;28;20075;-72
2021/05/11 08:35:38;;;;;;;2.25;0.88;;;;;;;;;;5048785;28;20021;-71
2021/05/11 08:38:04;;;;;;;1.13;0.85;;;;;;;;;;5048359;28;20020;-71
2021/05/11 08:40:32;;;;;;;2.72;1.42;;;;;;;;;;5048274;28;20098;-71
2021/05/11 08:43:01;;;;;;;4.20;2.40;;;;;;;;;;5049294;28;20087;-71
2021/05/11 08:45:31;;;;;;;4.70;2.78;;;;;;;;;;5064702;28;20036;-70
2021/05/11 08:47:57;;;;;;;3.60;1.90;;;;;;;;;;5048724;28;20063;-70
2021/05/11 08:50:29;;;;;;;4.75;1.70;;;;;;;;;;5046901;28;20118;-70
2021/05/11 09:07:14;;;;;;;3.65;2.22;;;;;;;;;;5044195;28;20132;-70
2021/05/11 09:13:53;;;;;;;4.55;2.30;;;;;;;;;;5047289;28;20431;-71
2021/05/11 10:14:37;;;;;;;2.63;1.13;;;;;;;;;;5045549;28;20040;-71
2021/05/11 10:31:54;;;;;;;1.38;0.90;;;;;;;;;;5051407;28;20260;-70
2021/05/11 10:48:21;;;;;;;0.95;0.80;;;;;;;;;;5044066;28;20052;-71
2021/05/11 10:50:58;;;;;;;3.53;0.80;;;;;;;;;;5046026;28;20040;-71
2021/05/11 10:53:34;;;;;;;4.35;0.88;;;;;;;;;;5045794;28;20078;-71
2021/05/11 10:56:19;;;;;;;2.15;1.13;;;;;;;;;;5045992;28;20032;-71
2021/05/11 10:59:04;;;;;;;1.83;1.10;;;;;;;;;;5046129;28;20573;-71
2021/05/11 11:01:33;;;;;;;2.78;1.10;;;;;;;;;;5044851;28;20510;-71
2021/05/11 11:04:11;;;;;;;1.38;0.77;;;;;;;;;;5042594;28;20025;-71
2021/05/11 11:07:00;;;;;;;0.90;0.85;;;;;;;;;;5045852;28;20029;-70
2021/05/11 11:09:26;;;;;;;2.80;1.00;;;;;;;;;;5034817;28;20419;-71
2021/05/11 11:11:52;;;;;;;0.85;0.85;;;;;;;;;;5045111;28;20081;-72
2021/05/11 11:14:18;;;;;;;1.58;1.23;;;;;;;;;;5045258;28;20045;-71
2021/05/11 11:16:46;;;;;;;0.80;0.60;;;;;;;;;;5045696;28;20044;-71
2021/05/11 11:19:12;;;;;;;3.03;1.00;;;;;;;;;;5045497;28;20403;-71
2021/05/11 11:21:59;;;;;;;0.50;0.50;;;;;;;;;;5044372;28;20496;-71
2021/05/11 11:24:32;;;;;;;1.30;1.20;;;;;;;;;;5043161;28;20029;-72
2021/05/11 11:26:58;;;;;;;2.72;0.70;;;;;;;;;;5046102;28;20104;-71
2021/05/11 11:29:26;;;;;;;1.73;0.90;;;;;;;;;;5046424;28;20033;-71
2021/05/11 11:31:52;;;;;;;1.48;0.95;;;;;;;;;;5045094;28;20032;-71
2021/05/11 11:34:40;;;;;;;0.73;0.52;;;;;;;;;;5040679;28;20031;-70
2021/05/11 11:37:10;;;;;;;1.23;0.88;;;;;;;;;;5046086;28;20123;-71
2021/05/11 11:39:44;;;;;;;5.75;0.95;;;;;;;;;;5045024;28;20074;-70
2021/05/11 11:42:27;;;;;;;1.85;0.70;;;;;;;;;;5021781;28;20113;-70
2021/05/11 11:44:59;;;;;;;1.80;0.97;;;;;;;;;;5024878;28;20026;-70
2021/05/11 11:47:26;;;;;;;0.98;0.80;;;;;;;;;;5037127;28;20271;-73
2021/05/11 11:49:54;;;;;;;2.75;1.10;;;;;;;;;;5020133;28;20575;-71
2021/05/11 11:52:29;;;;;;;1.70;0.88;;;;;;;;;;5040067;28;20032;-71
2021/05/11 12:00:13;;;;;;;1.63;0.80;;;;;;;;;;5036888;28;20063;-70
2021/05/11 12:02:39;;;;;;;3.10;0.50;;;;;;;;;;5038100;28;20112;-70
2021/05/11 12:05:09;;;;;;;0.95;0.82;;;;;;;;;;5038054;28;20567;-70
2021/05/11 12:07:43;;;;;;;2.72;0.88;;;;;;;;;;5041946;28;20053;-70
2021/05/11 12:10:10;;;;;;;3.50;0.80;;;;;;;;;;5033216;28;20132;-70
2021/05/11 12:12:36;;;;;;;1.67;0.50;;;;;;;;;;5037856;28;20036;-72
2021/05/11 12:15:13;;;;;;;0.93;0.85;;;;;;;;;;5040192;28;20033;-72
2021/05/11 12:17:45;;;;;;;1.13;0.65;;;;;;;;;;5038823;28;20017;-72
2021/05/11 12:20:24;;;;;;;0.93;0.82;;;;;;;;;;5040925;28;20040;-72
2021/05/11 12:23:02;;;;;;;1.92;0.40;;;;;;;;;;5040417;28;20040;-72
2021/05/11 12:25:28;;;;;;;0.75;0.65;;;;;;;;;;5037712;28;20041;-72
2021/05/11 12:27:54;;;;;;;1.52;0.73;;;;;;;;;;5043946;28;20017;-72
2021/05/11 12:30:20;;;;;;;1.38;0.80;;;;;;;;;;5042737;28;20253;-72
2021/05/11 12:32:46;;;;;;;0.98;0.50;;;;;;;;;;5044112;28;20476;-72
2021/05/11 12:35:13;;;;;;;1.77;1.02;;;;;;;;;;5043671;28;20037;-72
2021/05/11 12:37:50;;;;;;;2.60;1.30;;;;;;;;;;5032400;28;20065;-72
2021/05/11 12:40:30;;;;;;;1.05;0.70;;;;;;;;;;5027388;28;20464;-72
2021/05/11 12:42:58;;;;;;;3.30;0.80;;;;;;;;;;5041239;28;20092;-72
2021/05/11 12:45:24;;;;;;;3.35;0.70;;;;;;;;;;5025044;28;20052;-71
2021/05/11 12:47:53;;;;;;;1.05;0.80;;;;;;;;;;5029181;28;20049;-72
2021/05/11 12:50:23;;;;;;;3.72;0.93;;;;;;;;;;5036881;28;20071;-72
2021/05/11 12:52:52;;;;;;;1.10;0.90;;;;;;;;;;5040366;28;20037;-72
2021/05/11 12:55:42;;;;;;;1.38;0.70;;;;;;;;;;5031401;28;20128;-72
2021/05/11 12:59:01;;;;;;;3.65;0.70;;;;;;;;;;5033004;28;20029;-72
2021/05/11 13:01:04;;;;;;;10.35;1.88;;;;;;;;;;5016956;28;20040;-72
2021/05/11 13:03:48;;;;;;;0.52;0.52;;;;;;;;;;5045641;28;20159;-72
2021/05/11 13:35:37;;;;;;;1.40;1.08;;;;;;;;;;5004245;28;20046;-72
2021/05/11 13:38:04;;;;;;;1.35;0.80;;;;;;;;;;5004116;28;20524;-72
2021/05/11 13:40:31;;;;;;;4.18;0.82;;;;;;;;;;5024693;28;20040;-71
2021/05/11 13:42:57;;;;;;;1.50;1.08;;;;;;;;;;5046806;28;20029;-72
2021/05/11 13:45:24;;;;;;;1.63;0.93;;;;;;;;;;5046628;28;20539;-72
2021/05/11 13:48:31;;;;;;;1.52;0.90;;;;;;;;;;5035681;28;20057;-72
2021/05/11 13:53:12;;;;;;;1.38;0.95;;;;;;;;;;5046055;28;20116;-72
2021/05/11 14:03:46;;;;;;;1.90;1.80;;;;;;;;;;5045538;28;20064;-72
2021/05/11 14:06:12;;;;;;;3.20;1.50;;;;;;;;;;5045009;28;20425;-73
2021/05/11 14:08:38;;;;;;;5.10;1.75;;;;;;;;;;5046768;28;20035;-72
2021/05/11 14:11:04;;;;;;;6.97;1.80;;;;;;;;;;5046543;28;20419;-72
2021/05/11 14:13:30;;;;;;;3.08;1.83;;;;;;;;;;5045492;28;20108;-72
2021/05/11 14:15:56;;;;;;;2.75;1.60;;;;;;;;;;5046835;28;20029;-72
2021/05/11 14:18:23;;;;;;;1.63;1.38;;;;;;;;;;5042085;28;20692;-72
2021/05/11 14:20:49;;;;;;;4.95;2.22;;;;;;;;;;5032109;28;20025;-72
2021/05/11 14:23:15;;;;;;;2.20;2.08;;;;;;;;;;5043064;28;20048;-72
2021/05/11 14:25:41;;;;;;;3.97;2.67;;;;;;;;;;5045960;28;20033;-72
2021/05/11 14:28:07;;;;;;;4.68;2.50;;;;;;;;;;5045827;28;20043;-72
2021/05/11 14:30:33;;;;;;;2.72;2.50;;;;;;;;;;5045583;28;20051;-72
2021/05/11 14:33:00;;;;;;;3.40;1.98;;;;;;;;;;5045282;28;20415;-72
2021/05/11 14:35:26;;;;;;;3.55;1.90;;;;;;;;;;5044698;28;20086;-74
2021/05/11 14:37:52;;;;;;;2.45;2.00;;;;;;;;;;5044183;28;20025;-72
2021/05/11 14:40:18;;;;;;;2.75;1.73;;;;;;;;;;5040904;28;20028;-72
2021/05/11 14:42:44;;;;;;;1.75;1.65;;;;;;;;;;5045908;28;20090;-74
2021/05/11 14:45:11;;;;;;;3.17;1.35;;;;;;;;;;5044995;28;20021;-74
2021/05/11 14:47:44;;;;;;;1.75;1.55;;;;;;;;;;5045748;28;20065;-72
2021/05/11 14:50:11;;;;;;;4.95;1.80;;;;;;;;;;5024697;28;20503;-73
2021/05/11 14:52:37;;;;;;;6.43;2.35;;;;;;;;;;5025064;28;20056;-74
2021/05/11 14:55:04;;;;;;;13.32;3.83;;;;;;;;;;5024822;28;20029;-72
2021/05/11 14:57:30;;;;;;;3.10;2.15;;;;;;;;;;5024063;28;20036;-71
2021/05/11 14:59:56;;;;;;;1.98;1.80;;;;;;;;;;5006410;28;20364;-71
2021/05/11 15:02:22;;;;;;;2.22;1.95;;;;;;;;;;5023244;28;20099;-71
2021/05/11 15:04:48;;;;;;;2.35;1.80;;;;;;;;;;5021275;28;20563;-72
2021/05/11 15:07:15;;;;;;;6.38;1.50;;;;;;;;;;5019573;28;20021;-72
2021/05/11 15:09:41;;;;;;;2.63;0.90;;;;;;;;;;5024327;28;20124;-71
2021/05/11 15:12:07;;;;;;;4.03;1.33;;;;;;;;;;5024089;28;20037;-74
2021/05/11 15:14:33;;;;;;;1.52;1.13;;;;;;;;;;5025092;28;20028;-72
2021/05/11 15:17:58;;;;;;;7.20;1.08;;;;;;;;;;5024980;28;20041;-72
2021/05/11 15:19:45;;;;;;;1.30;1.17;;;;;;;;;;5042506;28;20813;-73
2021/05/11 15:22:11;;;;;;;2.45;1.70;;;;;;;;;;5043830;28;20029;-71
2021/05/11 15:24:37;;;;;;;4.63;1.33;;;;;;;;;;5045520;28;20033;-72
2021/05/11 15:27:03;;;;;;;2.40;1.65;;;;;;;;;;5044485;28;20029;-71
2021/05/11 15:29:30;;;;;;;3.03;1.38;;;;;;;;;;5044760;28;20029;-72
2021/05/11 15:32:00;;;;;;;2.13;1.20;;;;;;;;;;5044538;28;20036;-72
2021/05/11 15:34:29;;;;;;;2.33;1.08;;;;;;;;;;5049390;28;20555;-73
2021/05/11 15:36:55;;;;;;;4.20;1.40;;;;;;;;;;5047287;28;20137;-74
2021/05/11 15:39:22;;;;;;;3.80;1.17;;;;;;;;;;5052368;28;20501;-73
2021/05/11 15:41:48;;;;;;;5.20;1.50;;;;;;;;;;5063890;28;20035;-73
2021/05/11 15:44:14;;;;;;;2.15;1.00;;;;;;;;;;5053978;28;20684;-74
2021/05/11 15:46:40;;;;;;;3.15;1.15;;;;;;;;;;5044693;28;20391;-74
2021/05/11 15:49:06;;;;;;;1.83;0.90;;;;;;;;;;5043857;28;20102;-74
2021/05/11 15:51:32;;;;;;;2.00;1.02;;;;;;;;;;5044178;28;20047;-74
2021/05/11 15:53:58;;;;;;;2.72;1.25;;;;;;;;;;5045576;28;20055;-75
2021/05/11 15:56:25;;;;;;;0.73;0.60;;;;;;;;;;5044727;28;20029;-74
2021/05/11 15:58:52;;;;;;;3.95;1.30;;;;;;;;;;5044411;28;20567;-73
2021/05/11 16:01:18;;;;;;;6.55;1.80;;;;;;;;;;5040221;28;20039;-73
2021/05/11 16:03:44;;;;;;;1.95;1.17;;;;;;;;;;5040093;28;20032;-72
2021/05/11 16:06:12;;;;;;;3.25;1.60;;;;;;;;;;5048743;28;20501;-71
2021/05/11 16:08:38;;;;;;;4.28;1.60;;;;;;;;;;5047849;28;20027;-79
2021/05/11 16:11:05;;;;;;;1.90;1.80;;;;;;;;;;5043413;28;20040;-70
2021/05/11 16:13:32;;;;;;;4.40;1.67;;;;;;;;;;5044686;28;20059;-75
2021/05/11 16:16:00;;;;;;;2.92;1.70;;;;;;;;;;5040663;28;20445;-72
2021/05/11 16:18:29;;;;;;;2.90;1.63;;;;;;;;;;5044810;28;20035;-72
2021/05/11 16:20:55;;;;;;;6.70;1.20;;;;;;;;;;5048136;28;20111;-72
2021/05/11 16:23:21;;;;;;;1.70;1.00;;;;;;;;;;5046903;28;20535;-72
2021/05/11 16:25:47;;;;;;;3.63;1.52;;;;;;;;;;5048431;28;20029;-72
2021/05/11 16:28:13;;;;;;;6.55;3.90;;;;;;;;;;5047876;28;20100;-71
2021/05/11 16:30:41;;;;;;;2.92;1.85;;;;;;;;;;5038007;28;20124;-71
2021/05/11 16:33:09;;;;;;;5.30;1.70;;;;;;;;;;5042572;28;20058;-72
2021/05/11 16:35:35;;;;;;;3.00;2.00;;;;;;;;;;5047948;28;20063;-72
2021/05/11 16:38:01;;;;;;;6.13;2.20;;;;;;;;;;5045201;28;20100;-71
2021/05/11 16:40:28;;;;;;;4.45;1.88;;;;;;;;;;5054531;28;20033;-73
2021/05/11 16:42:56;;;;;;;2.47;2.05;;;;;;;;;;5049599;28;20029;-72
2021/05/11 16:45:23;;;;;;;5.28;2.15;;;;;;;;;;5047296;28;20094;-72
2021/05/11 16:47:56;;;;;;;2.45;1.17;;;;;;;;;;5049032;28;20051;-72
2021/05/11 16:50:22;;;;;;;;;;;;;;;;;;5049266;28;21236;-72
2021/05/11 16:52:48;;;;;;;3.33;1.92;;;;;;;;;;5061840;28;19923;-72
2021/05/11 16:55:15;;;;;;;4.20;1.90;;;;;;;;;;5049110;28;20112;-72
2021/05/11 16:57:41;;;;;;;2.28;1.73;;;;;;;;;;5048804;28;20031;-72
2021/05/11 17:00:08;;;;;;;4.00;2.03;;;;;;;;;;5046562;28;20040;-72
2021/05/11 17:02:34;;;;;;;2.60;1.90;;;;;;;;;;5034899;28;20035;-72
2021/05/11 17:05:00;;;;;;;3.08;2.03;;;;;;;;;;5048507;28;20033;-69
2021/05/11 17:07:26;;;;;;;2.80;2.33;;;;;;;;;;5048139;28;20680;-71
2021/05/11 17:09:53;;;;;;;3.15;2.45;;;;;;;;;;5033289;28;20029;-71
2021/05/11 17:12:19;;;;;;;3.20;2.03;;;;;;;;;;5044007;28;20388;-72
2021/05/11 17:14:45;;;;;;;2.28;2.08;;;;;;;;;;5038295;28;20120;-71
2021/05/11 17:17:11;;;;;;;3.08;1.42;;;;;;;;;;5053059;28;20032;-72
2021/05/11 17:19:37;;;;;;;3.63;1.98;;;;;;;;;;5061353;28;20028;-71
2021/05/11 17:22:04;;;;;;;4.65;1.83;;;;;;;;;;5056791;28;20427;-72
2021/05/11 17:24:30;;;;;;;5.03;1.75;;;;;;;;;;5062784;28;20135;-71
2021/05/11 17:26:56;;;;;;;0.95;0.88;;;;;;;;;;5066716;28;20106;-71
2021/05/11 17:29:26;;;;;;;3.67;1.63;;;;;;;;;;5058192;28;20668;-71
2021/05/11 17:31:52;;;;;;;3.35;1.52;;;;;;;;;;5052739;28;20060;-71
2021/05/11 17:34:19;;;;;;;4.30;2.08;;;;;;;;;;5047047;28;20495;-72
2021/05/11 17:36:46;;;;;;;3.20;1.35;;;;;;;;;;5049291;28;20028;-71
2021/05/11 17:39:12;;;;;;;2.05;1.85;;;;;;;;;;5043811;28;20025;-71
2021/05/11 17:41:38;;;;;;;2.42;1.33;;;;;;;;;;5052434;28;20059;-71
2021/05/11 17:44:05;;;;;;;2.53;1.20;;;;;;;;;;5046836;28;20783;-71
2021/05/11 17:46:31;;;;;;;2.33;1.80;;;;;;;;;;5064400;28;20025;-71
2021/05/11 17:48:58;;;;;;;2.67;1.70;;;;;;;;;;5046640;28;20445;-72
2021/05/11 17:51:24;;;;;;;2.63;2.42;;;;;;;;;;5044670;28;20102;-71
2021/05/11 17:53:50;;;;;;;4.18;2.13;;;;;;;;;;5046488;28;20076;-71
2021/05/11 17:56:17;;;;;;;2.15;1.88;;;;;;;;;;5045703;28;20381;-71
2021/05/11 17:58:43;;;;;;;2.67;2.10;;;;;;;;;;5045755;28;20033;-71
2021/05/11 18:01:09;;;;;;;3.38;2.13;;;;;;;;;;5045419;28;20438;-71
2021/05/11 18:03:36;;;;;;;1.73;1.38;;;;;;;;;;5046618;28;20079;-71
2021/05/11 18:06:02;;;;;;;2.20;1.63;;;;;;;;;;5047100;28;20037;-71
2021/05/11 18:08:30;;;;;;;1.48;1.35;;;;;;;;;;5046273;28;20021;-71
2021/05/11 18:10:59;;;;;;;3.03;1.50;;;;;;;;;;5042283;28;20496;-71
2021/05/11 18:13:26;;;;;;;1.75;1.63;;;;;;;;;;5044422;28;20212;-71
2021/05/11 18:15:53;;;;;;;3.53;2.13;;;;;;;;;;5045545;28;20403;-71
2021/05/11 18:18:19;;;;;;;2.05;1.52;;;;;;;;;;5045683;28;20123;-71
2021/05/11 18:20:45;;;;;;;4.03;1.80;;;;;;;;;;5037670;28;22075;-71
2021/05/11 18:23:11;;;;;;;1.67;1.27;;;;;;;;;;5045798;28;20669;-71
2021/05/11 18:25:37;;;;;;;1.75;1.58;;;;;;;;;;5043562;28;20025;-71
2021/05/11 18:28:04;;;;;;;2.80;1.42;;;;;;;;;;5046449;28;20025;-71
2021/05/11 18:30:30;;;;;;;3.88;1.42;;;;;;;;;;5043666;28;20530;-71
2021/05/11 18:32:57;;;;;;;8.77;1.60;;;;;;;;;;5044756;28;20040;-71
2021/05/11 18:35:26;;;;;;;2.50;1.40;;;;;;;;;;5047237;28;20033;-71
2021/05/11 18:38:02;;;;;;;1.70;1.60;;;;;;;;;;5045038;28;20028;-71
2021/05/11 18:40:29;;;;;;;1.88;1.77;;;;;;;;;;5042591;28;20494;-71
2021/05/11 18:42:55;;;;;;;2.10;1.08;;;;;;;;;;5043957;28;20527;-71
2021/05/11 18:45:22;;;;;;;1.95;1.48;;;;;;;;;;5044264;28;20060;-71
2021/05/11 18:47:56;;;;;;;2.83;1.50;;;;;;;;;;5039979;28;20045;-71
2021/05/11 18:50:26;;;;;;;2.03;1.40;;;;;;;;;;5040775;28;20041;-71
2021/05/11 18:52:52;;;;;;;1.67;1.35;;;;;;;;;;5044405;28;20025;-71
2021/05/11 18:55:19;;;;;;;1.83;1.40;;;;;;;;;;5042164;28;20238;-71
2021/05/11 18:57:45;;;;;;;1.58;1.42;;;;;;;;;;5043146;28;20452;-72
2021/05/11 19:00:13;;;;;;;1.80;1.65;;;;;;;;;;5041773;28;20028;-71
2021/05/11 19:02:39;;;;;;;2.13;1.70;;;;;;;;;;5042765;28;20384;-72
2021/05/11 19:05:06;;;;;;;2.17;1.05;;;;;;;;;;5046329;28;20052;-71